sensor_id;sensor_type;location;lat;lon;timestamp;temperature;humidity
14901;DHT22;7542;49.078;9.194;2023-04-01T00:00:22;24.70;49.10
14901;DHT22;7542;49.078;9.194;2023-04-01T00:01:25;24.70;49.10
14901;DHT22;7542;49.078;9.194;2023-04-01T00:02:27;24.70;49.00
14901;DHT22;7542;49.078;9.194;2023-04-01T00:03:29;24.70;49.10
14901;DHT22;7542;49.078;9.194;2023-04-01T00:04:32;24.70;49.10
14901;DHT22;7542;49.078;9.194;2023-04-01T00:05:34;24.70;49.10
14901;DHT22;7542;49.078;9.194;2023-04-01T00:06:36;24.70;49.10
14901;DHT22;7542;49.078;9.194;2023-04-01T00:07:39;24.60;49.10
14901;DHT22;7542;49.078;9.194;2023-04-01T00:08:42;24.70;49.10
14901;DHT22;7542;49.078;9.194;2023-04-01T00:09:44;24.60;49.00
14901;DHT22;7542;49.078;9.194;2023-04-01T00:10:46;24.60;49.10
14901;DHT22;7542;49.078;9.194;2023-04-01T00:11:48;24.60;49.10
14901;DHT22;7542;49.078;9.194;2023-04-01T00:12:50;24.60;49.10
14901;DHT22;7542;49.078;9.194;2023-04-01T00:13:52;24.60;49.10
14901;DHT22;7542;49.078;9.194;2023-04-01T00:14:54;24.60;49.10
14901;DHT22;7542;49.078;9.194;2023-04-01T00:15:56;24.60;49.10
14901;DHT22;7542;49.078;9.194;2023-04-01T00:17:00;24.60;49.20
14901;DHT22;7542;49.078;9.194;2023-04-01T00:18:03;24.50;49.20
14901;DHT22;7542;49.078;9.194;2023-04-01T00:19:06;24.60;49.20
14901;DHT22;7542;49.078;9.194;2023-04-01T00:20:08;24.60;49.20
14901;DHT22;7542;49.078;9.194;2023-04-01T00:21:10;24.50;49.20
14901;DHT22;7542;49.078;9.194;2023-04-01T00:22:12;24.50;49.20
14901;DHT22;7542;49.078;9.194;2023-04-01T00:23:15;24.50;49.10
14901;DHT22;7542;49.078;9.194;2023-04-01T00:24:17;24.50;49.10
14901;DHT22;7542;49.078;9.194;2023-04-01T00:25:19;24.60;49.00
14901;DHT22;7542;49.078;9.194;2023-04-01T00:26:21;24.50;49.10
14901;DHT22;7542;49.078;9.194;2023-04-01T00:27:23;24.50;49.10
14901;DHT22;7542;49.078;9.194;2023-04-01T00:28:27;24.50;49.10
14901;DHT22;7542;49.078;9.194;2023-04-01T00:29:29;24.50;49.10
14901;DHT22;7542;49.078;9.194;2023-04-01T00:30:32;24.50;49.10
14901;DHT22;7542;49.078;9.194;2023-04-01T00:31:34;24.60;49.10
14901;DHT22;7542;49.078;9.194;2023-04-01T00:32:36;24.50;49.20
14901;DHT22;7542;49.078;9.194;2023-04-01T00:33:39;24.50;49.10
14901;DHT22;7542;49.078;9.194;2023-04-01T00:34:42;24.50;49.20
14901;DHT22;7542;49.078;9.194;2023-04-01T00:35:46;24.50;49.10
14901;DHT22;7542;49.078;9.194;2023-04-01T00:36:47;24.50;49.20
14901;DHT22;7542;49.078;9.194;2023-04-01T00:37:49;24.50;49.20
14901;DHT22;7542;49.078;9.194;2023-04-01T00:38:52;24.50;49.10
14901;DHT22;7542;49.078;9.194;2023-04-01T00:39:54;24.50;49.20
14901;DHT22;7542;49.078;9.194;2023-04-01T00:40:57;24.50;49.20
14901;DHT22;7542;49.078;9.194;2023-04-01T00:42:00;24.50;49.10
14901;DHT22;7542;49.078;9.194;2023-04-01T00:43:19;24.50;49.20
14901;DHT22;7542;49.078;9.194;2023-04-01T00:44:24;24.50;49.20
14901;DHT22;7542;49.078;9.194;2023-04-01T00:46:37;24.50;49.20
14901;DHT22;7542;49.078;9.194;2023-04-01T00:47:39;24.50;49.20
14901;DHT22;7542;49.078;9.194;2023-04-01T00:48:48;24.50;49.20
14901;DHT22;7542;49.078;9.194;2023-04-01T00:49:54;24.40;49.10
14901;DHT22;7542;49.078;9.194;2023-04-01T00:52:14;24.50;49.20
14901;DHT22;7542;49.078;9.194;2023-04-01T00:53:19;24.50;49.20
14901;DHT22;7542;49.078;9.194;2023-04-01T00:54:24;24.50;49.20
14901;DHT22;7542;49.078;9.194;2023-04-01T00:55:32;24.50;49.20
14901;DHT22;7542;49.078;9.194;2023-04-01T00:56:56;24.40;49.10
14901;DHT22;7542;49.078;9.194;2023-04-01T00:58:04;24.40;49.20
14901;DHT22;7542;49.078;9.194;2023-04-01T00:59:16;24.40;49.20
14901;DHT22;7542;49.078;9.194;2023-04-01T01:00:22;24.50;49.30
14901;DHT22;7542;49.078;9.194;2023-04-01T01:01:24;24.40;49.20
14901;DHT22;7542;49.078;9.194;2023-04-01T01:02:27;24.40;49.20
14901;DHT22;7542;49.078;9.194;2023-04-01T01:03:30;24.40;49.20
14901;DHT22;7542;49.078;9.194;2023-04-01T01:04:34;24.40;49.20
14901;DHT22;7542;49.078;9.194;2023-04-01T01:10:35;24.40;49.20
14901;DHT22;7542;49.078;9.194;2023-04-01T01:11:54;24.40;49.10
14901;DHT22;7542;49.078;9.194;2023-04-01T01:13:21;24.40;49.10
14901;DHT22;7542;49.078;9.194;2023-04-01T01:16:00;24.40;49.20
14901;DHT22;7542;49.078;9.194;2023-04-01T01:16:45;24.30;49.10
14901;DHT22;7542;49.078;9.194;2023-04-01T01:31:36;24.20;49.20
14901;DHT22;7542;49.078;9.194;2023-04-01T01:33:01;24.20;49.20
14901;DHT22;7542;49.078;9.194;2023-04-01T01:35:44;24.20;49.20
14901;DHT22;7542;49.078;9.194;2023-04-01T01:36:55;24.20;49.20
14901;DHT22;7542;49.078;9.194;2023-04-01T01:38:15;24.20;49.20
14901;DHT22;7542;49.078;9.194;2023-04-01T01:39:20;24.20;49.20
14901;DHT22;7542;49.078;9.194;2023-04-01T01:40:31;24.20;49.20
14901;DHT22;7542;49.078;9.194;2023-04-01T01:41:36;24.20;49.20
14901;DHT22;7542;49.078;9.194;2023-04-01T01:42:50;24.20;49.10
14901;DHT22;7542;49.078;9.194;2023-04-01T01:43:56;24.20;49.20
14901;DHT22;7542;49.078;9.194;2023-04-01T01:45:02;24.20;49.10
14901;DHT22;7542;49.078;9.194;2023-04-01T01:46:12;24.10;49.20
14901;DHT22;7542;49.078;9.194;2023-04-01T01:47:18;24.20;49.20
14901;DHT22;7542;49.078;9.194;2023-04-01T01:48:24;24.20;49.20
14901;DHT22;7542;49.078;9.194;2023-04-01T01:49:31;24.10;49.10
14901;DHT22;7542;49.078;9.194;2023-04-01T01:50:35;24.10;49.20
14901;DHT22;7542;49.078;9.194;2023-04-01T01:51:38;24.10;49.20
14901;DHT22;7542;49.078;9.194;2023-04-01T01:52:41;24.10;49.20
14901;DHT22;7542;49.078;9.194;2023-04-01T01:53:43;24.10;49.20
14901;DHT22;7542;49.078;9.194;2023-04-01T01:54:53;24.10;49.20
14901;DHT22;7542;49.078;9.194;2023-04-01T01:55:57;24.20;49.20
14901;DHT22;7542;49.078;9.194;2023-04-01T01:57:08;24.10;49.10
14901;DHT22;7542;49.078;9.194;2023-04-01T01:58:33;24.10;49.20
14901;DHT22;7542;49.078;9.194;2023-04-01T01:59:43;24.10;49.10
14901;DHT22;7542;49.078;9.194;2023-04-01T02:00:53;24.10;49.10
14901;DHT22;7542;49.078;9.194;2023-04-01T02:02:00;24.20;49.10
14901;DHT22;7542;49.078;9.194;2023-04-01T02:03:10;24.10;49.10
14901;DHT22;7542;49.078;9.194;2023-04-01T02:04:14;24.10;49.10
14901;DHT22;7542;49.078;9.194;2023-04-01T02:05:22;24.10;49.10
14901;DHT22;7542;49.078;9.194;2023-04-01T02:06:28;24.10;49.00
14901;DHT22;7542;49.078;9.194;2023-04-01T02:07:35;24.10;49.00
14901;DHT22;7542;49.078;9.194;2023-04-01T02:08:47;24.10;49.00
14901;DHT22;7542;49.078;9.194;2023-04-01T02:09:50;24.10;49.10
14901;DHT22;7542;49.078;9.194;2023-04-01T02:11:01;24.10;49.00
14901;DHT22;7542;49.078;9.194;2023-04-01T02:12:08;24.10;49.00
14901;DHT22;7542;49.078;9.194;2023-04-01T02:13:24;24.10;49.10
14901;DHT22;7542;49.078;9.194;2023-04-01T02:15:55;24.10;49.10
14901;DHT22;7542;49.078;9.194;2023-04-01T02:17:06;24.10;49.10
14901;DHT22;7542;49.078;9.194;2023-04-01T02:18:12;24.10;49.10
14901;DHT22;7542;49.078;9.194;2023-04-01T02:19:17;24.10;49.10
14901;DHT22;7542;49.078;9.194;2023-04-01T02:20:24;24.10;49.10
14901;DHT22;7542;49.078;9.194;2023-04-01T02:21:31;24.10;49.10
14901;DHT22;7542;49.078;9.194;2023-04-01T02:22:36;24.10;49.20
14901;DHT22;7542;49.078;9.194;2023-04-01T02:23:43;24.10;49.10
14901;DHT22;7542;49.078;9.194;2023-04-01T02:24:48;24.10;49.20
14901;DHT22;7542;49.078;9.194;2023-04-01T02:25:52;24.10;49.10
14901;DHT22;7542;49.078;9.194;2023-04-01T02:26:55;24.10;49.10
14901;DHT22;7542;49.078;9.194;2023-04-01T02:27:58;24.10;49.10
14901;DHT22;7542;49.078;9.194;2023-04-01T02:29:03;24.10;49.10
14901;DHT22;7542;49.078;9.194;2023-04-01T02:30:07;24.00;49.10
14901;DHT22;7542;49.078;9.194;2023-04-01T02:31:10;24.10;49.10
14901;DHT22;7542;49.078;9.194;2023-04-01T02:32:14;24.00;49.00
14901;DHT22;7542;49.078;9.194;2023-04-01T02:33:19;24.00;49.00
14901;DHT22;7542;49.078;9.194;2023-04-01T02:34:24;24.00;49.00
14901;DHT22;7542;49.078;9.194;2023-04-01T02:35:27;24.00;49.00
14901;DHT22;7542;49.078;9.194;2023-04-01T02:36:29;24.00;49.00
14901;DHT22;7542;49.078;9.194;2023-04-01T02:37:31;24.00;49.00
14901;DHT22;7542;49.078;9.194;2023-04-01T02:38:36;24.00;49.10
14901;DHT22;7542;49.078;9.194;2023-04-01T02:39:39;24.00;49.10
14901;DHT22;7542;49.078;9.194;2023-04-01T02:40:47;24.00;49.00
14901;DHT22;7542;49.078;9.194;2023-04-01T02:41:51;24.00;49.00
14901;DHT22;7542;49.078;9.194;2023-04-01T02:42:53;24.00;49.00
14901;DHT22;7542;49.078;9.194;2023-04-01T02:43:55;24.00;49.00
14901;DHT22;7542;49.078;9.194;2023-04-01T02:44:58;24.00;48.90
14901;DHT22;7542;49.078;9.194;2023-04-01T02:46:00;24.00;49.00
14901;DHT22;7542;49.078;9.194;2023-04-01T02:47:03;23.90;48.90
14901;DHT22;7542;49.078;9.194;2023-04-01T02:48:05;24.00;49.00
14901;DHT22;7542;49.078;9.194;2023-04-01T02:49:07;23.90;48.90
14901;DHT22;7542;49.078;9.194;2023-04-01T02:50:10;24.00;49.00
14901;DHT22;7542;49.078;9.194;2023-04-01T02:51:12;23.90;48.90
14901;DHT22;7542;49.078;9.194;2023-04-01T02:52:14;24.00;48.90
14901;DHT22;7542;49.078;9.194;2023-04-01T02:53:16;23.90;48.90
14901;DHT22;7542;49.078;9.194;2023-04-01T02:54:18;23.90;48.90
14901;DHT22;7542;49.078;9.194;2023-04-01T02:55:20;23.90;48.90
14901;DHT22;7542;49.078;9.194;2023-04-01T02:56:22;23.90;49.00
14901;DHT22;7542;49.078;9.194;2023-04-01T02:57:25;23.90;49.00
14901;DHT22;7542;49.078;9.194;2023-04-01T02:58:27;23.90;48.90
14901;DHT22;7542;49.078;9.194;2023-04-01T02:59:28;23.90;48.90
14901;DHT22;7542;49.078;9.194;2023-04-01T03:00:30;23.90;48.90
14901;DHT22;7542;49.078;9.194;2023-04-01T03:01:32;23.90;49.00
14901;DHT22;7542;49.078;9.194;2023-04-01T03:02:35;23.90;48.90
14901;DHT22;7542;49.078;9.194;2023-04-01T03:03:37;23.90;48.90
14901;DHT22;7542;49.078;9.194;2023-04-01T03:04:39;23.90;48.90
14901;DHT22;7542;49.078;9.194;2023-04-01T03:05:41;23.90;48.80
14901;DHT22;7542;49.078;9.194;2023-04-01T03:06:43;23.90;48.90
14901;DHT22;7542;49.078;9.194;2023-04-01T03:07:45;23.90;48.90
14901;DHT22;7542;49.078;9.194;2023-04-01T03:08:47;23.90;48.90
14901;DHT22;7542;49.078;9.194;2023-04-01T03:09:49;23.90;48.90
14901;DHT22;7542;49.078;9.194;2023-04-01T03:10:52;23.90;48.90
14901;DHT22;7542;49.078;9.194;2023-04-01T03:11:54;23.90;48.80
14901;DHT22;7542;49.078;9.194;2023-04-01T03:12:56;23.90;48.90
14901;DHT22;7542;49.078;9.194;2023-04-01T03:13:58;23.90;48.90
14901;DHT22;7542;49.078;9.194;2023-04-01T03:14:59;23.90;48.90
14901;DHT22;7542;49.078;9.194;2023-04-01T03:16:12;23.90;48.90
14901;DHT22;7542;49.078;9.194;2023-04-01T03:17:14;23.80;48.80
14901;DHT22;7542;49.078;9.194;2023-04-01T03:18:16;23.90;48.90
14901;DHT22;7542;49.078;9.194;2023-04-01T03:19:18;23.90;48.90
14901;DHT22;7542;49.078;9.194;2023-04-01T03:20:20;23.90;48.90
14901;DHT22;7542;49.078;9.194;2023-04-01T03:21:23;23.90;48.90
14901;DHT22;7542;49.078;9.194;2023-04-01T03:22:26;23.90;48.90
14901;DHT22;7542;49.078;9.194;2023-04-01T03:23:28;23.90;48.90
14901;DHT22;7542;49.078;9.194;2023-04-01T03:24:29;23.90;48.90
14901;DHT22;7542;49.078;9.194;2023-04-01T03:25:31;23.90;48.90
14901;DHT22;7542;49.078;9.194;2023-04-01T03:26:33;23.90;48.80
14901;DHT22;7542;49.078;9.194;2023-04-01T03:27:35;24.00;48.90
14901;DHT22;7542;49.078;9.194;2023-04-01T03:28:37;23.80;48.80
14901;DHT22;7542;49.078;9.194;2023-04-01T03:29:39;23.80;48.70
14901;DHT22;7542;49.078;9.194;2023-04-01T03:30:41;23.80;48.80
14901;DHT22;7542;49.078;9.194;2023-04-01T03:31:43;23.80;48.80
14901;DHT22;7542;49.078;9.194;2023-04-01T03:32:45;23.80;48.80
14901;DHT22;7542;49.078;9.194;2023-04-01T03:33:47;23.80;48.80
14901;DHT22;7542;49.078;9.194;2023-04-01T03:34:49;23.80;48.80
14901;DHT22;7542;49.078;9.194;2023-04-01T03:35:51;23.80;48.80
14901;DHT22;7542;49.078;9.194;2023-04-01T03:36:53;23.80;48.80
14901;DHT22;7542;49.078;9.194;2023-04-01T03:37:56;23.80;48.70
14901;DHT22;7542;49.078;9.194;2023-04-01T03:38:57;23.80;48.80
14901;DHT22;7542;49.078;9.194;2023-04-01T03:39:59;23.80;48.70
14901;DHT22;7542;49.078;9.194;2023-04-01T03:41:01;23.80;48.70
14901;DHT22;7542;49.078;9.194;2023-04-01T03:42:03;23.80;48.80
14901;DHT22;7542;49.078;9.194;2023-04-01T03:43:08;23.80;48.70
14901;DHT22;7542;49.078;9.194;2023-04-01T03:44:11;23.80;48.70
14901;DHT22;7542;49.078;9.194;2023-04-01T03:45:14;23.80;48.70
14901;DHT22;7542;49.078;9.194;2023-04-01T03:46:20;23.80;48.70
14901;DHT22;7542;49.078;9.194;2023-04-01T03:47:22;23.80;48.70
14901;DHT22;7542;49.078;9.194;2023-04-01T03:48:25;23.80;48.70
14901;DHT22;7542;49.078;9.194;2023-04-01T03:49:27;23.80;48.70
14901;DHT22;7542;49.078;9.194;2023-04-01T03:50:29;23.80;48.70
14901;DHT22;7542;49.078;9.194;2023-04-01T03:51:32;23.80;48.70
14901;DHT22;7542;49.078;9.194;2023-04-01T03:52:34;23.80;48.70
14901;DHT22;7542;49.078;9.194;2023-04-01T03:53:36;23.80;48.70
14901;DHT22;7542;49.078;9.194;2023-04-01T03:54:38;23.80;48.80
14901;DHT22;7542;49.078;9.194;2023-04-01T03:55:40;23.80;48.80
14901;DHT22;7542;49.078;9.194;2023-04-01T03:56:42;23.80;48.70
14901;DHT22;7542;49.078;9.194;2023-04-01T03:57:44;23.80;48.70
14901;DHT22;7542;49.078;9.194;2023-04-01T03:58:46;23.80;48.80
14901;DHT22;7542;49.078;9.194;2023-04-01T03:59:48;23.80;48.70
14901;DHT22;7542;49.078;9.194;2023-04-01T04:00:50;23.80;48.80
14901;DHT22;7542;49.078;9.194;2023-04-01T04:01:52;23.80;48.70
14901;DHT22;7542;49.078;9.194;2023-04-01T04:02:53;23.70;48.80
14901;DHT22;7542;49.078;9.194;2023-04-01T04:03:57;23.70;48.80
14901;DHT22;7542;49.078;9.194;2023-04-01T04:04:59;23.70;48.70
14901;DHT22;7542;49.078;9.194;2023-04-01T04:06:01;23.70;48.70
14901;DHT22;7542;49.078;9.194;2023-04-01T04:07:03;23.70;48.70
14901;DHT22;7542;49.078;9.194;2023-04-01T04:08:05;23.70;48.70
14901;DHT22;7542;49.078;9.194;2023-04-01T04:09:07;23.70;48.70
14901;DHT22;7542;49.078;9.194;2023-04-01T04:10:09;23.70;48.70
14901;DHT22;7542;49.078;9.194;2023-04-01T04:11:11;24.10;48.90
14901;DHT22;7542;49.078;9.194;2023-04-01T04:12:13;23.70;48.80
14901;DHT22;7542;49.078;9.194;2023-04-01T04:13:15;23.60;48.70
14901;DHT22;7542;49.078;9.194;2023-04-01T04:14:16;23.70;48.80
14901;DHT22;7542;49.078;9.194;2023-04-01T04:15:19;23.70;48.70
14901;DHT22;7542;49.078;9.194;2023-04-01T04:16:21;23.70;48.80
14901;DHT22;7542;49.078;9.194;2023-04-01T04:17:23;23.70;48.80
14901;DHT22;7542;49.078;9.194;2023-04-01T04:18:25;23.70;48.70
14901;DHT22;7542;49.078;9.194;2023-04-01T04:19:32;23.70;48.80
14901;DHT22;7542;49.078;9.194;2023-04-01T04:20:35;23.70;48.80
14901;DHT22;7542;49.078;9.194;2023-04-01T04:21:37;23.70;48.80
14901;DHT22;7542;49.078;9.194;2023-04-01T04:22:38;23.70;48.80
14901;DHT22;7542;49.078;9.194;2023-04-01T04:23:41;23.70;48.80
14901;DHT22;7542;49.078;9.194;2023-04-01T04:24:44;23.70;48.80
14901;DHT22;7542;49.078;9.194;2023-04-01T04:26:06;23.60;48.70
14901;DHT22;7542;49.078;9.194;2023-04-01T04:27:09;23.70;48.80
14901;DHT22;7542;49.078;9.194;2023-04-01T04:28:11;23.60;48.70
14901;DHT22;7542;49.078;9.194;2023-04-01T04:29:13;23.70;48.70
14901;DHT22;7542;49.078;9.194;2023-04-01T04:30:15;23.60;48.70
14901;DHT22;7542;49.078;9.194;2023-04-01T04:31:21;23.70;48.80
14901;DHT22;7542;49.078;9.194;2023-04-01T04:32:25;23.80;48.80
14901;DHT22;7542;49.078;9.194;2023-04-01T04:33:28;19.20;46.80
14901;DHT22;7542;49.078;9.194;2023-04-01T04:34:30;23.60;48.60
14901;DHT22;7542;49.078;9.194;2023-04-01T04:35:32;23.70;48.70
14901;DHT22;7542;49.078;9.194;2023-04-01T04:36:35;23.70;48.70
14901;DHT22;7542;49.078;9.194;2023-04-01T04:37:37;23.70;48.60
14901;DHT22;7542;49.078;9.194;2023-04-01T04:38:38;23.70;48.50
14901;DHT22;7542;49.078;9.194;2023-04-01T04:39:40;23.70;48.30
14901;DHT22;7542;49.078;9.194;2023-04-01T04:40:43;23.60;48.20
14901;DHT22;7542;49.078;9.194;2023-04-01T04:41:45;23.70;48.20
14901;DHT22;7542;49.078;9.194;2023-04-01T04:42:47;23.70;48.10
14901;DHT22;7542;49.078;9.194;2023-04-01T04:43:56;23.70;48.20
14901;DHT22;7542;49.078;9.194;2023-04-01T04:44:58;23.70;48.00
14901;DHT22;7542;49.078;9.194;2023-04-01T04:46:05;23.70;48.00
14901;DHT22;7542;49.078;9.194;2023-04-01T04:47:08;23.70;48.00
14901;DHT22;7542;49.078;9.194;2023-04-01T04:48:11;23.70;48.00
14901;DHT22;7542;49.078;9.194;2023-04-01T04:49:17;23.70;48.00
14901;DHT22;7542;49.078;9.194;2023-04-01T04:50:19;23.70;47.90
14901;DHT22;7542;49.078;9.194;2023-04-01T04:51:21;23.70;48.10
14901;DHT22;7542;49.078;9.194;2023-04-01T04:52:23;23.70;48.10
14901;DHT22;7542;49.078;9.194;2023-04-01T04:53:25;23.70;48.00
14901;DHT22;7542;49.078;9.194;2023-04-01T04:54:27;23.70;48.20
14901;DHT22;7542;49.078;9.194;2023-04-01T04:55:29;23.70;48.10
14901;DHT22;7542;49.078;9.194;2023-04-01T04:56:32;23.70;48.30
14901;DHT22;7542;49.078;9.194;2023-04-01T04:57:34;23.70;48.20
14901;DHT22;7542;49.078;9.194;2023-04-01T04:58:38;23.80;48.30
14901;DHT22;7542;49.078;9.194;2023-04-01T04:59:40;23.70;48.40
14901;DHT22;7542;49.078;9.194;2023-04-01T05:00:42;23.70;48.30
14901;DHT22;7542;49.078;9.194;2023-04-01T05:01:45;23.70;48.30
14901;DHT22;7542;49.078;9.194;2023-04-01T05:02:47;23.70;48.30
14901;DHT22;7542;49.078;9.194;2023-04-01T05:03:49;23.70;48.20
14901;DHT22;7542;49.078;9.194;2023-04-01T05:04:51;23.70;48.20
14901;DHT22;7542;49.078;9.194;2023-04-01T05:05:53;23.60;48.20
14901;DHT22;7542;49.078;9.194;2023-04-01T05:06:55;23.70;48.20
14901;DHT22;7542;49.078;9.194;2023-04-01T05:07:57;23.70;48.20
14901;DHT22;7542;49.078;9.194;2023-04-01T05:08:59;23.70;48.30
14901;DHT22;7542;49.078;9.194;2023-04-01T05:10:01;23.70;48.20
14901;DHT22;7542;49.078;9.194;2023-04-01T05:11:03;23.70;48.30
14901;DHT22;7542;49.078;9.194;2023-04-01T05:12:11;23.70;48.10
14901;DHT22;7542;49.078;9.194;2023-04-01T05:13:14;23.80;48.00
14901;DHT22;7542;49.078;9.194;2023-04-01T05:14:16;28.00;49.80
14901;DHT22;7542;49.078;9.194;2023-04-01T05:15:18;23.70;48.00
14901;DHT22;7542;49.078;9.194;2023-04-01T05:16:21;23.70;47.90
14901;DHT22;7542;49.078;9.194;2023-04-01T05:17:23;23.70;48.00
14901;DHT22;7542;49.078;9.194;2023-04-01T05:18:25;23.70;48.00
14901;DHT22;7542;49.078;9.194;2023-04-01T05:19:26;23.70;47.90
14901;DHT22;7542;49.078;9.194;2023-04-01T05:20:29;23.70;48.20
14901;DHT22;7542;49.078;9.194;2023-04-01T05:21:31;23.70;48.00
14901;DHT22;7542;49.078;9.194;2023-04-01T05:22:33;23.70;48.10
14901;DHT22;7542;49.078;9.194;2023-04-01T05:23:35;23.70;48.20
14901;DHT22;7542;49.078;9.194;2023-04-01T05:24:37;23.80;48.10
14901;DHT22;7542;49.078;9.194;2023-04-01T05:25:39;23.70;48.10
14901;DHT22;7542;49.078;9.194;2023-04-01T05:26:41;23.70;48.10
14901;DHT22;7542;49.078;9.194;2023-04-01T05:27:43;23.70;48.20
14901;DHT22;7542;49.078;9.194;2023-04-01T05:28:45;23.70;48.20
14901;DHT22;7542;49.078;9.194;2023-04-01T05:29:46;23.70;48.20
14901;DHT22;7542;49.078;9.194;2023-04-01T05:30:48;23.70;48.20
14901;DHT22;7542;49.078;9.194;2023-04-01T05:31:50;23.70;48.20
14901;DHT22;7542;49.078;9.194;2023-04-01T05:32:53;23.70;48.10
14901;DHT22;7542;49.078;9.194;2023-04-01T05:33:55;23.70;48.20
14901;DHT22;7542;49.078;9.194;2023-04-01T05:34:57;23.70;48.10
14901;DHT22;7542;49.078;9.194;2023-04-01T05:36:13;23.70;48.20
14901;DHT22;7542;49.078;9.194;2023-04-01T05:37:18;23.70;48.20
14901;DHT22;7542;49.078;9.194;2023-04-01T05:38:20;23.70;48.20
14901;DHT22;7542;49.078;9.194;2023-04-01T05:39:22;23.70;48.20
14901;DHT22;7542;49.078;9.194;2023-04-01T05:40:25;23.70;48.30
14901;DHT22;7542;49.078;9.194;2023-04-01T05:41:26;23.70;48.10
14901;DHT22;7542;49.078;9.194;2023-04-01T05:42:28;23.70;48.20
14901;DHT22;7542;49.078;9.194;2023-04-01T05:43:30;23.70;48.30
14901;DHT22;7542;49.078;9.194;2023-04-01T05:44:32;23.70;48.30
14901;DHT22;7542;49.078;9.194;2023-04-01T05:45:35;23.70;48.30
14901;DHT22;7542;49.078;9.194;2023-04-01T05:46:37;23.80;48.40
14901;DHT22;7542;49.078;9.194;2023-04-01T05:47:39;23.70;48.40
14901;DHT22;7542;49.078;9.194;2023-04-01T05:48:41;23.70;48.50
14901;DHT22;7542;49.078;9.194;2023-04-01T05:49:43;23.60;48.30
14901;DHT22;7542;49.078;9.194;2023-04-01T05:50:44;23.60;48.20
14901;DHT22;7542;49.078;9.194;2023-04-01T05:51:46;23.60;48.30
14901;DHT22;7542;49.078;9.194;2023-04-01T05:52:48;23.70;48.50
14901;DHT22;7542;49.078;9.194;2023-04-01T05:53:50;23.60;48.40
14901;DHT22;7542;49.078;9.194;2023-04-01T05:54:52;23.70;48.40
14901;DHT22;7542;49.078;9.194;2023-04-01T05:55:54;23.60;48.40
14901;DHT22;7542;49.078;9.194;2023-04-01T05:56:56;23.60;48.40
14901;DHT22;7542;49.078;9.194;2023-04-01T05:57:58;23.60;48.40
14901;DHT22;7542;49.078;9.194;2023-04-01T05:59:00;23.70;48.50
14901;DHT22;7542;49.078;9.194;2023-04-01T06:00:03;23.70;48.70
14901;DHT22;7542;49.078;9.194;2023-04-01T06:01:10;23.60;48.50
14901;DHT22;7542;49.078;9.194;2023-04-01T06:02:17;23.60;48.40
14901;DHT22;7542;49.078;9.194;2023-04-01T06:03:20;23.50;48.50
14901;DHT22;7542;49.078;9.194;2023-04-01T06:04:22;23.60;48.50
14901;DHT22;7542;49.078;9.194;2023-04-01T06:05:27;23.60;48.50
14901;DHT22;7542;49.078;9.194;2023-04-01T06:06:32;23.60;48.40
14901;DHT22;7542;49.078;9.194;2023-04-01T06:07:40;23.60;48.40
14901;DHT22;7542;49.078;9.194;2023-04-01T06:08:42;23.60;48.40
14901;DHT22;7542;49.078;9.194;2023-04-01T06:09:45;23.60;48.50
14901;DHT22;7542;49.078;9.194;2023-04-01T06:14:26;23.60;48.40
14901;DHT22;7542;49.078;9.194;2023-04-01T06:17:30;23.60;48.40
14901;DHT22;7542;49.078;9.194;2023-04-01T06:18:44;23.60;48.30
14901;DHT22;7542;49.078;9.194;2023-04-01T06:20:35;23.60;48.40
14901;DHT22;7542;49.078;9.194;2023-04-01T06:22:19;23.60;48.20
14901;DHT22;7542;49.078;9.194;2023-04-01T06:36:06;23.50;48.30
14901;DHT22;7542;49.078;9.194;2023-04-01T06:39:40;23.50;48.50
14901;DHT22;7542;49.078;9.194;2023-04-01T06:50:07;23.50;48.40
14901;DHT22;7542;49.078;9.194;2023-04-01T06:53:03;23.40;48.30
14901;DHT22;7542;49.078;9.194;2023-04-01T06:54:16;23.40;48.40
14901;DHT22;7542;49.078;9.194;2023-04-01T06:55:35;23.40;48.30
14901;DHT22;7542;49.078;9.194;2023-04-01T06:56:42;23.40;48.30
14901;DHT22;7542;49.078;9.194;2023-04-01T06:57:51;23.50;48.50
14901;DHT22;7542;49.078;9.194;2023-04-01T06:59:12;23.40;48.40
14901;DHT22;7542;49.078;9.194;2023-04-01T07:00:27;23.40;48.40
14901;DHT22;7542;49.078;9.194;2023-04-01T07:01:39;23.40;48.40
14901;DHT22;7542;49.078;9.194;2023-04-01T07:03:21;23.40;48.50
14901;DHT22;7542;49.078;9.194;2023-04-01T07:04:43;23.40;48.50
14901;DHT22;7542;49.078;9.194;2023-04-01T07:05:48;23.40;48.60
14901;DHT22;7542;49.078;9.194;2023-04-01T07:08:02;23.50;48.70
14901;DHT22;7542;49.078;9.194;2023-04-01T07:09:14;23.30;48.60
14901;DHT22;7542;49.078;9.194;2023-04-01T07:10:31;23.40;48.50
14901;DHT22;7542;49.078;9.194;2023-04-01T07:11:38;23.40;48.50
14901;DHT22;7542;49.078;9.194;2023-04-01T07:12:54;23.50;48.60
14901;DHT22;7542;49.078;9.194;2023-04-01T07:14:03;23.50;48.60
14901;DHT22;7542;49.078;9.194;2023-04-01T07:15:46;23.50;48.70
14901;DHT22;7542;49.078;9.194;2023-04-01T07:17:05;23.50;48.90
14901;DHT22;7542;49.078;9.194;2023-04-01T07:18:29;23.50;48.90
14901;DHT22;7542;49.078;9.194;2023-04-01T07:20:56;23.50;48.90
14901;DHT22;7542;49.078;9.194;2023-04-01T07:22:27;23.50;49.00
14901;DHT22;7542;49.078;9.194;2023-04-01T07:23:38;23.50;48.60
14901;DHT22;7542;49.078;9.194;2023-04-01T07:24:46;23.50;48.50
14901;DHT22;7542;49.078;9.194;2023-04-01T07:25:56;23.50;48.40
14901;DHT22;7542;49.078;9.194;2023-04-01T07:27:02;23.60;49.50
14901;DHT22;7542;49.078;9.194;2023-04-01T07:28:12;23.50;50.00
14901;DHT22;7542;49.078;9.194;2023-04-01T07:29:18;23.50;49.60
14901;DHT22;7542;49.078;9.194;2023-04-01T07:30:22;23.50;49.40
14901;DHT22;7542;49.078;9.194;2023-04-01T07:33:12;23.50;49.40
14901;DHT22;7542;49.078;9.194;2023-04-01T07:34:30;23.50;48.60
14901;DHT22;7542;49.078;9.194;2023-04-01T07:36:21;23.50;49.20
14901;DHT22;7542;49.078;9.194;2023-04-01T07:49:11;23.50;49.40
14901;DHT22;7542;49.078;9.194;2023-04-01T07:50:25;23.50;49.70
14901;DHT22;7542;49.078;9.194;2023-04-01T07:52:59;23.50;49.40
14901;DHT22;7542;49.078;9.194;2023-04-01T07:54:19;23.50;48.70
14901;DHT22;7542;49.078;9.194;2023-04-01T07:55:36;23.50;48.40
14901;DHT22;7542;49.078;9.194;2023-04-01T07:56:51;23.50;48.30
14901;DHT22;7542;49.078;9.194;2023-04-01T07:59:23;23.50;48.10
14901;DHT22;7542;49.078;9.194;2023-04-01T08:00:58;23.50;48.10
14901;DHT22;7542;49.078;9.194;2023-04-01T08:03:38;23.50;48.00
14901;DHT22;7542;49.078;9.194;2023-04-01T08:06:31;23.50;48.10
14901;DHT22;7542;49.078;9.194;2023-04-01T08:10:25;23.50;48.50
14901;DHT22;7542;49.078;9.194;2023-04-01T08:14:48;23.50;48.10
14901;DHT22;7542;49.078;9.194;2023-04-01T08:16:20;23.50;48.10
14901;DHT22;7542;49.078;9.194;2023-04-01T08:20:56;23.50;48.30
14901;DHT22;7542;49.078;9.194;2023-04-01T08:22:07;23.50;48.20
14901;DHT22;7542;49.078;9.194;2023-04-01T08:23:20;23.50;48.30
14901;DHT22;7542;49.078;9.194;2023-04-01T08:24:41;23.50;49.40
14901;DHT22;7542;49.078;9.194;2023-04-01T08:27:18;23.50;49.80
14901;DHT22;7542;49.078;9.194;2023-04-01T08:29:53;23.50;49.90
14901;DHT22;7542;49.078;9.194;2023-04-01T08:31:08;23.50;49.70
14901;DHT22;7542;49.078;9.194;2023-04-01T08:32:17;23.50;50.20